Time;durP1;ratioP1;P1;durP2;ratioP2;P2;SDS_P1;SDS_P2;PMS_P1;PMS_P2;Temp;Humidity;BMP_temperature;BMP_pressure;BME280_temperature;BME280_humidity;BME280_pressure;Samples;Min_cycle;Max_cycle;Signal;HPM_P1;HPM_P2
2022/06/29 00:00:54;;;;;;;;;2.00;2.00;;;;;;;;5098211;27;45325;-54
2022/06/29 00:03:19;;;;;;;;;1.25;1.25;;;;;;;;5098224;27;45306;-52
2022/06/29 00:05:45;;;;;;;;;2.25;1.50;;;;;;;;5097834;27;45549;-53
2022/06/29 00:08:10;;;;;;;;;3.00;2.00;;;;;;;;5097420;27;45272;-52
2022/06/29 00:10:36;;;;;;;;;3.00;1.50;;;;;;;;5097931;27;45427;-51
2022/06/29 00:13:02;;;;;;;;;1.75;1.75;;;;;;;;5098215;27;45357;-53
2022/06/29 00:15:27;;;;;;;;;2.00;2.00;;;;;;;;5097647;27;46938;-54
2022/06/29 00:17:52;;;;;;;;;2.00;0.50;;;;;;;;5097730;27;45347;-54
2022/06/29 00:20:18;;;;;;;;;3.25;1.50;;;;;;;;5097714;27;45514;-53
2022/06/29 00:22:43;;;;;;;;;1.75;1.75;;;;;;;;5097787;27;45278;-52
2022/06/29 00:25:10;;;;;;;;;3.75;2.00;;;;;;;;5097552;27;45289;-54
2022/06/29 00:27:36;;;;;;;;;2.40;2.40;;;;;;;;5097619;27;45231;-54
2022/06/29 00:30:02;;;;;;;;;2.00;2.00;;;;;;;;5097630;27;45341;-53
2022/06/29 00:32:27;;;;;;;;;3.00;3.00;;;;;;;;5097805;27;45574;-54
2022/06/29 00:34:52;;;;;;;;;5.25;3.50;;;;;;;;5097472;27;46212;-53
2022/06/29 00:37:18;;;;;;;;;2.75;2.50;;;;;;;;5097562;27;45426;-52
2022/06/29 00:39:43;;;;;;;;;2.50;2.50;;;;;;;;5097436;27;45342;-54
2022/06/29 00:42:08;;;;;;;;;6.25;6.00;;;;;;;;5097681;27;45604;-54
2022/06/29 00:44:33;;;;;;;;;4.50;3.50;;;;;;;;5097392;27;45978;-54
2022/06/29 00:47:00;;;;;;;;;3.50;3.50;;;;;;;;5097354;27;45398;-53
2022/06/29 00:49:26;;;;;;;;;4.50;4.00;;;;;;;;5097567;27;45267;-54
2022/06/29 00:52:03;;;;;;;;;4.50;3.50;;;;;;;;5097366;27;45322;-54
2022/06/29 00:54:30;;;;;;;;;5.00;4.00;;;;;;;;5096927;27;46027;-53
2022/06/29 00:56:56;;;;;;;;;4.60;4.60;;;;;;;;5097257;27;45303;-52
2022/06/29 00:59:25;;;;;;;;;4.50;4.25;;;;;;;;5097328;27;45421;-54
2022/06/29 01:01:50;;;;;;;;;7.00;5.00;;;;;;;;5097305;27;45497;-52
2022/06/29 01:04:16;;;;;;;;;4.00;4.00;;;;;;;;5097176;27;47274;-54
2022/06/29 01:06:41;;;;;;;;;5.00;5.00;;;;;;;;5096978;27;45337;-51
2022/06/29 01:09:07;;;;;;;;;8.25;5.25;;;;;;;;5097222;27;45302;-53
2022/06/29 01:11:32;;;;;;;;;5.00;4.00;;;;;;;;5097022;27;45328;-52
2022/06/29 01:13:57;;;;;;;;;9.50;4.75;;;;;;;;5096663;27;46204;-54
2022/06/29 01:16:23;;;;;;;;;5.00;4.75;;;;;;;;5097250;27;45304;-52
2022/06/29 01:18:48;;;;;;;;;8.50;4.75;;;;;;;;5097616;27;45239;-53
2022/06/29 01:21:13;;;;;;;;;9.50;5.00;;;;;;;;5100989;27;45376;-53
2022/06/29 01:23:39;;;;;;;;;4.50;4.25;;;;;;;;5100346;27;46752;-50
2022/06/29 01:26:05;;;;;;;;;5.50;5.00;;;;;;;;5100258;27;45935;-54
2022/06/29 01:28:30;;;;;;;;;8.00;4.00;;;;;;;;5100823;27;45211;-53
2022/06/29 01:30:56;;;;;;;;;6.00;4.00;;;;;;;;5100816;27;45397;-51
2022/06/29 01:33:21;;;;;;;;;4.50;3.00;;;;;;;;5100355;27;45331;-54
2022/06/29 01:35:46;;;;;;;;;6.00;4.00;;;;;;;;5100364;27;45231;-54
2022/06/29 01:38:11;;;;;;;;;4.75;4.50;;;;;;;;5100406;27;45378;-54
2022/06/29 01:40:37;;;;;;;;;5.75;5.00;;;;;;;;5100566;27;45442;-51
2022/06/29 01:43:03;;;;;;;;;4.00;4.00;;;;;;;;5100064;27;45346;-52
2022/06/29 01:45:28;;;;;;;;;7.50;5.00;;;;;;;;5100274;27;45327;-53
2022/06/29 01:47:53;;;;;;;;;6.00;5.00;;;;;;;;5100291;27;45518;-54
2022/06/29 01:50:18;;;;;;;;;7.00;5.25;;;;;;;;5100462;27;45277;-54
2022/06/29 01:52:44;;;;;;;;;4.25;4.25;;;;;;;;5100204;27;45282;-53
2022/06/29 01:55:09;;;;;;;;;4.00;4.00;;;;;;;;5099854;27;45342;-54
2022/06/29 01:57:34;;;;;;;;;5.50;3.00;;;;;;;;5100415;27;45258;-52
2022/06/29 01:59:59;;;;;;;;;3.00;1.50;;;;;;;;5100224;27;45318;-53
2022/06/29 02:02:25;;;;;;;;;6.00;3.25;;;;;;;;5099825;27;46052;-54
2022/06/29 02:04:50;;;;;;;;;0.00;0.00;;;;;;;;5100172;27;45352;-53
2022/06/29 02:07:15;;;;;;;;;3.50;3.25;;;;;;;;5100053;27;45543;-50
2022/06/29 02:09:40;;;;;;;;;4.00;3.00;;;;;;;;5100215;27;45484;-53
2022/06/29 02:12:06;;;;;;;;;4.00;4.00;;;;;;;;5099452;27;47180;-54
2022/06/29 02:14:31;;;;;;;;;4.25;4.00;;;;;;;;5099655;27;45423;-53
2022/06/29 02:16:56;;;;;;;;;2.75;2.75;;;;;;;;5099805;27;45415;-53
2022/06/29 02:19:21;;;;;;;;;3.75;3.75;;;;;;;;5099755;27;45359;-53
2022/06/29 02:21:46;;;;;;;;;6.50;3.50;;;;;;;;5099530;27;46838;-54
2022/06/29 02:24:12;;;;;;;;;4.25;3.25;;;;;;;;5099462;27;45374;-53
2022/06/29 02:26:37;;;;;;;;;7.25;2.50;;;;;;;;5099534;27;45491;-50
2022/06/29 02:29:02;;;;;;;;;4.00;4.00;;;;;;;;5099787;27;45520;-53
2022/06/29 02:36:55;;;;;;;;;2.75;2.00;;;;;;;;5099521;27;45385;-50
2022/06/29 02:39:20;;;;;;;;;4.00;4.00;;;;;;;;5099641;27;45322;-53
2022/06/29 02:41:45;;;;;;;;;3.00;2.25;;;;;;;;5098997;27;46773;-54
2022/06/29 02:44:10;;;;;;;;;4.00;3.00;;;;;;;;5099426;27;45504;-54
2022/06/29 02:46:36;;;;;;;;;2.75;2.75;;;;;;;;5098041;27;45406;-53
2022/06/29 02:49:01;;;;;;;;;2.25;2.25;;;;;;;;5098341;27;45462;-54
2022/06/29 02:51:26;;;;;;;;;4.00;3.00;;;;;;;;5099243;27;45337;-53
2022/06/29 02:53:51;;;;;;;;;3.00;2.00;;;;;;;;5099208;27;45503;-52
2022/06/29 02:56:16;;;;;;;;;5.00;5.00;;;;;;;;5099278;27;45476;-52
2022/06/29 02:58:42;;;;;;;;;3.75;3.00;;;;;;;;5099131;27;45418;-52
2022/06/29 03:01:07;;;;;;;;;4.50;3.00;;;;;;;;5098983;27;46118;-54
2022/06/29 03:03:32;;;;;;;;;7.25;3.75;;;;;;;;5099138;27;45457;-52
2022/06/29 03:05:57;;;;;;;;;5.25;4.00;;;;;;;;5098976;27;45423;-54
2022/06/29 03:08:23;;;;;;;;;3.75;3.75;;;;;;;;5099457;27;45431;-53
2022/06/29 03:10:49;;;;;;;;;2.75;2.75;;;;;;;;5098522;27;46288;-52
2022/06/29 03:13:14;;;;;;;;;3.75;3.75;;;;;;;;5098844;27;45350;-53
2022/06/29 03:15:39;;;;;;;;;5.00;4.00;;;;;;;;5098881;27;45361;-52
2022/06/29 03:18:05;;;;;;;;;4.00;3.25;;;;;;;;5097532;27;45417;-53
2022/06/29 03:20:30;;;;;;;;;2.50;2.25;;;;;;;;5098702;27;45245;-51
2022/06/29 03:22:55;;;;;;;;;2.75;2.75;;;;;;;;5098984;27;45315;-53
2022/06/29 03:25:20;;;;;;;;;6.00;3.00;;;;;;;;5099041;27;45195;-53
2022/06/29 03:27:45;;;;;;;;;4.00;4.00;;;;;;;;5099308;27;45259;-53
2022/06/29 03:30:11;;;;;;;;;2.25;2.25;;;;;;;;5098790;27;46299;-52
2022/06/29 03:32:36;;;;;;;;;4.25;4.25;;;;;;;;5099253;27;45351;-51
2022/06/29 03:35:02;;;;;;;;;6.75;3.75;;;;;;;;5098626;27;45326;-52
2022/06/29 03:37:27;;;;;;;;;5.50;5.00;;;;;;;;5098899;27;45264;-52
2022/06/29 03:39:53;;;;;;;;;5.00;5.00;;;;;;;;5098407;27;47040;-53
2022/06/29 03:42:18;;;;;;;;;2.75;2.75;;;;;;;;5097220;27;45398;-54
2022/06/29 03:44:43;;;;;;;;;5.75;4.75;;;;;;;;5098751;27;45435;-53
2022/06/29 03:47:08;;;;;;;;;2.75;2.75;;;;;;;;5098596;27;45345;-50
2022/06/29 03:49:35;;;;;;;;;5.00;2.50;;;;;;;;5098383;27;45415;-54
2022/06/29 03:52:00;;;;;;;;;3.75;3.75;;;;;;;;5098090;27;45280;-52
2022/06/29 03:54:26;;;;;;;;;6.50;4.00;;;;;;;;5098267;27;45555;-55
2022/06/29 03:56:51;;;;;;;;;3.50;3.00;;;;;;;;5098483;27;45296;-52
2022/06/29 03:59:16;;;;;;;;;5.00;4.00;;;;;;;;5098173;27;45469;-52
2022/06/29 04:01:41;;;;;;;;;3.25;3.25;;;;;;;;5098149;27;45387;-52
2022/06/29 04:04:06;;;;;;;;;3.00;3.00;;;;;;;;5098215;27;45546;-51
2022/06/29 04:06:32;;;;;;;;;3.00;3.00;;;;;;;;5098347;27;45340;-54
2022/06/29 04:08:57;;;;;;;;;4.00;4.00;;;;;;;;5097921;27;47086;-53
2022/06/29 04:14:06;;;;;;;;;3.75;3.50;;;;;;;;5097905;27;45443;-52
2022/06/29 04:16:31;;;;;;;;;3.75;3.00;;;;;;;;5098121;27;45400;-52
2022/06/29 04:18:56;;;;;;;;;3.00;3.00;;;;;;;;5097578;27;46154;-51
2022/06/29 04:21:21;;;;;;;;;3.75;3.00;;;;;;;;5097958;27;45358;-53
2022/06/29 04:23:47;;;;;;;;;5.75;4.00;;;;;;;;5097876;27;45257;-54
2022/06/29 04:26:12;;;;;;;;;5.00;3.75;;;;;;;;5097869;27;45388;-53
2022/06/29 04:28:37;;;;;;;;;4.25;3.00;;;;;;;;5097680;27;46313;-51
2022/06/29 04:31:02;;;;;;;;;3.25;3.25;;;;;;;;5097640;27;45329;-54
2022/06/29 04:33:28;;;;;;;;;4.00;4.00;;;;;;;;5098088;27;45333;-53
2022/06/29 04:35:53;;;;;;;;;5.00;4.00;;;;;;;;5098011;27;45318;-53
2022/06/29 04:38:19;;;;;;;;;4.25;3.00;;;;;;;;5097469;27;45498;-55
2022/06/29 04:40:44;;;;;;;;;4.00;3.75;;;;;;;;5097494;27;45235;-54
2022/06/29 04:43:09;;;;;;;;;4.75;3.75;;;;;;;;5097414;27;45410;-51
2022/06/29 04:48:19;;;;;;;;;5.25;5.00;;;;;;;;5097533;27;45271;-52
2022/06/29 04:50:44;;;;;;;;;6.00;5.50;;;;;;;;5095963;27;45472;-52
2022/06/29 04:53:09;;;;;;;;;4.25;4.25;;;;;;;;5098836;27;45427;-52
2022/06/29 04:55:35;;;;;;;;;5.75;5.00;;;;;;;;5101315;27;45206;-53
2022/06/29 04:58:00;;;;;;;;;6.75;4.25;;;;;;;;5100959;27;45299;-53
2022/06/29 05:00:25;;;;;;;;;4.75;4.75;;;;;;;;5101037;27;45313;-52
2022/06/29 05:02:51;;;;;;;;;5.50;4.75;;;;;;;;5100939;27;45210;-53
2022/06/29 05:05:16;;;;;;;;;6.00;5.00;;;;;;;;5101152;27;45448;-53
2022/06/29 05:07:41;;;;;;;;;4.75;3.75;;;;;;;;5100739;27;45242;-52
2022/06/29 05:10:07;;;;;;;;;5.50;5.50;;;;;;;;5100664;27;45577;-52
2022/06/29 05:12:32;;;;;;;;;7.00;5.75;;;;;;;;5100919;27;45400;-54
2022/06/29 05:14:57;;;;;;;;;9.50;6.25;;;;;;;;5100886;27;45824;-54
2022/06/29 05:17:22;;;;;;;;;9.00;6.75;;;;;;;;5100762;27;45344;-53
2022/06/29 05:19:48;;;;;;;;;5.75;5.50;;;;;;;;5100455;27;45281;-54
2022/06/29 05:22:13;;;;;;;;;7.75;5.00;;;;;;;;5100610;27;45451;-54
2022/06/29 05:24:38;;;;;;;;;5.75;4.00;;;;;;;;5101083;27;45384;-52
2022/06/29 05:27:05;;;;;;;;;7.50;6.75;;;;;;;;5100096;27;45486;-52
2022/06/29 05:29:30;;;;;;;;;8.00;5.25;;;;;;;;5100674;27;45293;-54
2022/06/29 05:31:55;;;;;;;;;5.50;3.75;;;;;;;;5100670;27;45308;-54
2022/06/29 05:34:20;;;;;;;;;3.25;3.25;;;;;;;;5100600;27;45379;-52
2022/06/29 05:36:45;;;;;;;;;5.00;4.00;;;;;;;;5100488;27;46045;-54
2022/06/29 05:39:11;;;;;;;;;4.25;4.00;;;;;;;;5100585;27;45334;-54
2022/06/29 05:41:36;;;;;;;;;3.00;3.00;;;;;;;;5100535;27;45335;-55
2022/06/29 05:44:04;;;;;;;;;2.25;1.25;;;;;;;;5100601;27;45436;-55
2022/06/29 05:46:29;;;;;;;;;4.75;4.75;;;;;;;;5100078;27;45231;-53
2022/06/29 05:48:55;;;;;;;;;8.00;6.00;;;;;;;;5100236;27;45228;-54
2022/06/29 05:51:20;;;;;;;;;7.00;5.00;;;;;;;;5100254;27;45224;-54
2022/06/29 05:53:45;;;;;;;;;4.75;4.50;;;;;;;;5100563;27;45305;-54
2022/06/29 05:56:11;;;;;;;;;5.25;4.00;;;;;;;;5099872;27;46505;-54
2022/06/29 05:58:36;;;;;;;;;6.00;5.00;;;;;;;;5099657;27;45383;-54
2022/06/29 06:01:05;;;;;;;;;3.50;3.00;;;;;;;;5100229;27;45333;-53
2022/06/29 06:03:31;;;;;;;;;6.00;4.50;;;;;;;;5100304;27;45301;-53
2022/06/29 06:05:56;;;;;;;;;5.50;4.75;;;;;;;;5098994;27;46216;-55
2022/06/29 06:08:21;;;;;;;;;3.50;3.00;;;;;;;;5099752;27;45411;-52
2022/06/29 06:10:46;;;;;;;;;4.00;2.00;;;;;;;;5100070;27;45296;-52
2022/06/29 06:13:12;;;;;;;;;3.00;3.00;;;;;;;;5100192;27;45407;-54
2022/06/29 06:15:38;;;;;;;;;6.00;4.50;;;;;;;;5099683;27;46073;-51
2022/06/29 06:18:03;;;;;;;;;2.00;1.00;;;;;;;;5099852;27;45374;-53
2022/06/29 06:20:28;;;;;;;;;2.50;2.50;;;;;;;;5099667;27;45243;-51
2022/06/29 06:22:54;;;;;;;;;4.25;2.00;;;;;;;;5099944;27;45203;-54
2022/06/29 06:25:19;;;;;;;;;3.00;2.00;;;;;;;;5099627;27;46075;-52
2022/06/29 06:27:44;;;;;;;;;4.00;2.00;;;;;;;;5099432;27;45453;-53
2022/06/29 06:30:10;;;;;;;;;3.00;3.00;;;;;;;;5099906;27;45313;-53
2022/06/29 06:32:35;;;;;;;;;5.00;2.00;;;;;;;;5099934;27;45219;-57
2022/06/29 06:35:00;;;;;;;;;4.00;2.75;;;;;;;;5099476;27;46106;-52
2022/06/29 06:37:25;;;;;;;;;3.50;3.50;;;;;;;;5099546;27;45618;-54
2022/06/29 06:42:35;;;;;;;;;3.00;2.75;;;;;;;;5099283;27;45391;-53
2022/06/29 06:45:00;;;;;;;;;4.00;2.00;;;;;;;;5097934;27;47016;-53
2022/06/29 06:47:25;;;;;;;;;2.50;2.25;;;;;;;;5099218;27;45314;-54
2022/06/29 06:49:50;;;;;;;;;3.00;1.25;;;;;;;;5099542;27;45360;-51
2022/06/29 06:52:17;;;;;;;;;1.25;1.00;;;;;;;;5099628;27;45321;-54
2022/06/29 06:54:44;;;;;;;;;3.00;1.60;;;;;;;;5099105;27;47494;-52
2022/06/29 06:57:09;;;;;;;;;5.00;2.00;;;;;;;;5099412;27;45380;-53
2022/06/29 06:59:35;;;;;;;;;2.00;0.50;;;;;;;;5099108;27;45427;-53
2022/06/29 07:02:00;;;;;;;;;1.00;1.00;;;;;;;;5099341;27;45376;-55
2022/06/29 07:04:25;;;;;;;;;2.25;1.75;;;;;;;;5099051;27;46275;-54
2022/06/29 07:06:50;;;;;;;;;1.00;1.00;;;;;;;;5099088;27;45301;-53
2022/06/29 07:09:16;;;;;;;;;2.00;1.00;;;;;;;;5099422;27;45360;-53
2022/06/29 07:11:41;;;;;;;;;2.25;0.75;;;;;;;;5099343;27;45551;-55
2022/06/29 07:14:06;;;;;;;;;3.00;1.75;;;;;;;;5098704;27;45910;-51
2022/06/29 07:16:31;;;;;;;;;4.75;2.00;;;;;;;;5099079;27;45348;-55
2022/06/29 07:18:57;;;;;;;;;2.50;2.00;;;;;;;;5098820;27;45237;-53
2022/06/29 07:21:22;;;;;;;;;4.25;1.00;;;;;;;;5098845;27;45415;-55
2022/06/29 07:23:47;;;;;;;;;4.25;1.25;;;;;;;;5098534;27;46510;-55
2022/06/29 07:26:12;;;;;;;;;0.75;0.75;;;;;;;;5098876;27;45251;-55
2022/06/29 07:28:39;;;;;;;;;2.50;1.25;;;;;;;;5098562;27;45444;-54
2022/06/29 07:31:04;;;;;;;;;1.00;1.00;;;;;;;;5098906;27;45395;-57
2022/06/29 07:33:29;;;;;;;;;1.00;1.00;;;;;;;;5098896;27;46039;-53
2022/06/29 07:35:55;;;;;;;;;1.00;1.00;;;;;;;;5098663;27;45437;-55
2022/06/29 07:38:20;;;;;;;;;0.25;0.00;;;;;;;;5098768;27;45291;-58
2022/06/29 07:40:45;;;;;;;;;1.75;1.00;;;;;;;;5098865;27;45163;-49
2022/06/29 07:43:11;;;;;;;;;2.00;0.25;;;;;;;;5098023;27;45507;-49
2022/06/29 07:45:36;;;;;;;;;2.50;0.00;;;;;;;;5098533;27;45240;-49
2022/06/29 07:48:02;;;;;;;;;0.00;0.00;;;;;;;;5098647;27;45331;-51
2022/06/29 07:50:27;;;;;;;;;2.25;1.00;;;;;;;;5098732;27;45400;-48
2022/06/29 07:52:52;;;;;;;;;1.25;1.00;;;;;;;;5097031;27;46938;-50
2022/06/29 07:55:17;;;;;;;;;4.00;1.25;;;;;;;;5098389;27;45231;-51
2022/06/29 07:57:44;;;;;;;;;0.25;0.00;;;;;;;;5098526;27;45345;-52
2022/06/29 08:00:09;;;;;;;;;0.80;0.80;;;;;;;;5098368;27;45438;-52
2022/06/29 08:02:34;;;;;;;;;1.75;0.25;;;;;;;;5098084;27;45475;-52
2022/06/29 08:05:01;;;;;;;;;1.25;1.25;;;;;;;;5098016;27;45428;-51
2022/06/29 08:07:26;;;;;;;;;1.80;1.00;;;;;;;;5098330;27;45396;-51
2022/06/29 08:09:53;;;;;;;;;1.00;1.00;;;;;;;;5098347;27;45249;-51
2022/06/29 08:12:18;;;;;;;;;0.60;0.60;;;;;;;;5098091;27;46285;-48
2022/06/29 08:14:44;;;;;;;;;0.00;0.00;;;;;;;;5098039;27;45409;-52
2022/06/29 08:17:09;;;;;;;;;1.00;1.00;;;;;;;;5098127;27;45252;-51
2022/06/29 08:19:34;;;;;;;;;2.50;0.75;;;;;;;;5096891;27;45445;-52
2022/06/29 08:21:59;;;;;;;;;0.75;0.75;;;;;;;;5097999;27;46282;-51
2022/06/29 08:24:27;;;;;;;;;1.00;1.00;;;;;;;;5097827;27;45316;-49
2022/06/29 08:26:52;;;;;;;;;2.00;2.00;;;;;;;;5096786;27;45331;-50
2022/06/29 08:29:17;;;;;;;;;1.75;1.75;;;;;;;;5097468;27;45187;-51
2022/06/29 08:31:42;;;;;;;;;1.00;1.00;;;;;;;;5097951;27;45366;-51
2022/06/29 08:34:09;;;;;;;;;1.50;1.00;;;;;;;;5097954;27;45263;-49
2022/06/29 08:36:34;;;;;;;;;0.20;0.20;;;;;;;;5097781;27;45296;-49
2022/06/29 08:39:01;;;;;;;;;3.50;1.25;;;;;;;;5098188;27;45529;-49
2022/06/29 08:41:27;;;;;;;;;1.20;1.20;;;;;;;;5097400;27;46062;-49
2022/06/29 08:43:53;;;;;;;;;2.00;1.00;;;;;;;;5097404;27;45475;-51
2022/06/29 08:46:19;;;;;;;;;3.00;1.25;;;;;;;;5098018;27;45372;-49
2022/06/29 08:48:45;;;;;;;;;0.80;0.80;;;;;;;;5097910;27;45447;-52
2022/06/29 08:51:10;;;;;;;;;4.00;0.50;;;;;;;;5097531;27;46028;-52
2022/06/29 08:53:36;;;;;;;;;1.00;1.00;;;;;;;;5097558;27;45413;-52
2022/06/29 08:56:03;;;;;;;;;4.40;1.60;;;;;;;;5097674;27;45285;-48
2022/06/29 08:58:28;;;;;;;;;1.20;0.80;;;;;;;;5097445;27;45372;-51
2022/06/29 09:00:54;;;;;;;;;1.25;0.75;;;;;;;;5097326;27;46281;-51
2022/06/29 09:03:20;;;;;;;;;1.00;0.00;;;;;;;;5097523;27;45301;-52
2022/06/29 09:05:48;;;;;;;;;1.40;1.00;;;;;;;;5097563;27;45352;-51
2022/06/29 09:08:15;;;;;;;;;0.00;0.00;;;;;;;;5097523;27;45308;-49
2022/06/29 09:10:40;;;;;;;;;0.20;0.20;;;;;;;;5097317;27;46337;-50
2022/06/29 09:13:05;;;;;;;;;0.75;0.75;;;;;;;;5097183;27;45313;-48
2022/06/29 09:15:40;;;;;;;;;0.75;0.75;;;;;;;;5097263;27;45354;-51
2022/06/29 09:18:25;;;;;;;;;0.20;0.20;;;;;;;;5097804;27;45298;-51
2022/06/29 09:20:55;;;;;;;;;1.20;1.20;;;;;;;;5097012;27;45506;-50
2022/06/29 09:23:21;;;;;;;;;0.60;0.60;;;;;;;;5095803;27;45435;-50
2022/06/29 09:25:46;;;;;;;;;2.50;1.75;;;;;;;;5097399;27;45361;-50
2022/06/29 09:28:21;;;;;;;;;1.50;1.50;;;;;;;;5097544;27;45447;-50
2022/06/29 09:30:47;;;;;;;;;0.80;0.80;;;;;;;;5096928;27;46079;-52
2022/06/29 09:33:12;;;;;;;;;0.75;0.75;;;;;;;;5097147;27;45351;-49
2022/06/29 09:35:39;;;;;;;;;1.00;1.00;;;;;;;;5097332;27;45313;-48
2022/06/29 09:38:37;;;;;;;;;6.20;5.20;;;;;;;;5097276;27;45344;-47
2022/06/29 09:41:02;;;;;;;;;2.80;1.00;;;;;;;;5056393;28;46222;-48
2022/06/29 09:43:28;;;;;;;;;1.25;0.50;;;;;;;;5057425;28;45442;-50
2022/06/29 09:45:54;;;;;;;;;2.00;0.75;;;;;;;;5057638;28;45304;-51
2022/06/29 09:48:21;;;;;;;;;0.00;0.00;;;;;;;;5057827;28;45459;-49
2022/06/29 09:50:46;;;;;;;;;1.80;0.80;;;;;;;;5057401;28;45456;-50
2022/06/29 09:53:12;;;;;;;;;1.50;1.50;;;;;;;;5057303;28;45431;-52
2022/06/29 09:55:37;;;;;;;;;2.25;0.50;;;;;;;;5057404;28;45457;-48
2022/06/29 09:58:03;;;;;;;;;0.00;0.00;;;;;;;;5057682;28;45350;-53
2022/06/29 10:03:13;;;;;;;;;0.00;0.00;;;;;;;;5057195;28;45379;-50
2022/06/29 10:06:04;;;;;;;;;0.20;0.20;;;;;;;;5057519;28;45394;-51
2022/06/29 10:08:31;;;;;;;;;0.80;0.80;;;;;;;;5057601;28;45466;-49
2022/06/29 10:11:01;;;;;;;;;0.80;0.80;;;;;;;;5056979;28;46563;-48
2022/06/29 10:13:39;;;;;;;;;4.00;2.00;;;;;;;;5056640;28;45296;-50
2022/06/29 10:16:25;;;;;;;;;1.20;1.20;;;;;;;;5068601;27;45575;-51
2022/06/29 10:18:59;;;;;;;;;0.80;0.80;;;;;;;;5099734;27;45322;-50
2022/06/29 10:21:29;;;;;;;;;2.00;1.80;;;;;;;;5099504;27;45387;-49
2022/06/29 10:23:58;;;;;;;;;0.40;0.00;;;;;;;;5099901;27;45306;-51
2022/06/29 10:26:23;;;;;;;;;0.60;0.60;;;;;;;;5100117;27;45330;-49
2022/06/29 10:28:48;;;;;;;;;1.00;0.50;;;;;;;;5100198;27;45266;-51
2022/06/29 10:31:15;;;;;;;;;0.00;0.00;;;;;;;;5099430;27;46341;-49
2022/06/29 10:33:40;;;;;;;;;0.20;0.20;;;;;;;;5099651;27;45429;-49
2022/06/29 10:36:06;;;;;;;;;1.25;1.25;;;;;;;;5099648;27;45649;-51
2022/06/29 10:38:35;;;;;;;;;3.80;0.60;;;;;;;;5099863;27;45237;-49
2022/06/29 10:41:07;;;;;;;;;2.80;0.80;;;;;;;;5099630;27;46211;-48
2022/06/29 10:43:32;;;;;;;;;5.40;1.60;;;;;;;;5099533;27;45330;-50
2022/06/29 10:45:57;;;;;;;;;1.25;0.75;;;;;;;;5099637;27;45307;-48
2022/06/29 10:48:24;;;;;;;;;0.75;0.75;;;;;;;;5099638;27;45396;-51
2022/06/29 10:50:50;;;;;;;;;2.00;2.00;;;;;;;;5098636;27;47150;-51
2022/06/29 10:53:16;;;;;;;;;2.00;1.25;;;;;;;;5099376;27;45338;-49
2022/06/29 10:55:46;;;;;;;;;0.00;0.00;;;;;;;;5099144;27;45281;-50
2022/06/29 10:58:12;;;;;;;;;1.80;1.80;;;;;;;;5099589;27;45412;-50
2022/06/29 11:00:44;;;;;;;;;1.00;0.00;;;;;;;;5099048;27;45940;-50
2022/06/29 11:03:11;;;;;;;;;1.80;1.20;;;;;;;;5099015;27;45416;-51
2022/06/29 11:05:37;;;;;;;;;1.40;1.20;;;;;;;;5099402;27;45588;-50
2022/06/29 11:13:30;;;;;;;;;2.60;2.00;;;;;;;;5098861;27;45336;-51
2022/06/29 11:15:56;;;;;;;;;0.60;0.60;;;;;;;;5098747;27;45449;-48
2022/06/29 11:18:28;;;;;;;;;1.00;1.00;;;;;;;;5099333;27;45340;-49
2022/06/29 11:20:53;;;;;;;;;2.80;2.40;;;;;;;;5098150;27;46442;-49
2022/06/29 11:23:20;;;;;;;;;2.75;1.75;;;;;;;;5098646;27;45299;-48
2022/06/29 11:25:47;;;;;;;;;1.80;1.80;;;;;;;;5098906;27;45406;-48
2022/06/29 11:28:18;;;;;;;;;1.00;1.00;;;;;;;;5098857;27;45398;-47
2022/06/29 11:31:02;;;;;;;;;1.00;1.00;;;;;;;;5098482;27;47256;-50
2022/06/29 11:33:28;;;;;;;;;3.00;1.60;;;;;;;;5098465;27;45165;-50
2022/06/29 11:35:54;;;;;;;;;0.80;0.80;;;;;;;;5098245;27;45489;-47
2022/06/29 11:38:19;;;;;;;;;1.00;1.00;;;;;;;;5098768;27;45650;-50
2022/06/29 11:40:46;;;;;;;;;1.00;1.00;;;;;;;;5098523;27;47141;-51
2022/06/29 11:43:14;;;;;;;;;0.80;0.40;;;;;;;;5096893;27;45547;-49
2022/06/29 11:45:46;;;;;;;;;0.60;0.20;;;;;;;;5098538;27;45224;-48
2022/06/29 11:48:11;;;;;;;;;2.80;2.00;;;;;;;;5098664;27;45594;-47
2022/06/29 11:50:43;;;;;;;;;3.50;1.75;;;;;;;;5096885;27;47061;-48
2022/06/29 11:53:09;;;;;;;;;1.00;1.00;;;;;;;;5098494;27;45372;-48
2022/06/29 11:55:38;;;;;;;;;2.50;0.75;;;;;;;;5097137;27;45294;-52
2022/06/29 11:58:03;;;;;;;;;0.40;0.40;;;;;;;;5098573;27;45458;-49
2022/06/29 12:00:29;;;;;;;;;0.50;0.50;;;;;;;;5098033;27;46283;-49
2022/06/29 12:02:58;;;;;;;;;1.25;0.50;;;;;;;;5097075;27;45238;-48
2022/06/29 12:05:24;;;;;;;;;2.40;1.00;;;;;;;;5098240;27;45243;-52
2022/06/29 12:07:49;;;;;;;;;2.00;0.75;;;;;;;;5098287;27;45302;-49
2022/06/29 12:10:15;;;;;;;;;3.00;1.25;;;;;;;;5097839;27;46289;-51
2022/06/29 12:12:40;;;;;;;;;1.00;1.00;;;;;;;;5098008;27;45508;-51
2022/06/29 12:15:08;;;;;;;;;0.00;0.00;;;;;;;;5098008;27;45319;-50
2022/06/29 12:17:33;;;;;;;;;1.20;1.00;;;;;;;;5098119;27;45356;-51
2022/06/29 12:19:58;;;;;;;;;1.50;1.50;;;;;;;;5097634;27;45238;-48
2022/06/29 12:22:23;;;;;;;;;1.00;1.00;;;;;;;;5097328;27;45384;-49
2022/06/29 12:24:50;;;;;;;;;1.00;1.00;;;;;;;;5097987;27;45321;-48
2022/06/29 12:27:15;;;;;;;;;1.00;1.00;;;;;;;;5098156;27;45345;-48
2022/06/29 12:29:40;;;;;;;;;2.00;1.00;;;;;;;;5097459;27;46315;-52
2022/06/29 12:32:05;;;;;;;;;3.25;3.25;;;;;;;;5097704;27;45318;-53
2022/06/29 12:34:31;;;;;;;;;3.25;2.00;;;;;;;;5097771;27;45207;-49
2022/06/29 12:36:56;;;;;;;;;5.00;2.25;;;;;;;;5098061;27;45262;-46
2022/06/29 12:39:22;;;;;;;;;2.00;2.00;;;;;;;;5097589;27;45296;-47
2022/06/29 12:41:47;;;;;;;;;1.50;1.50;;;;;;;;5097563;27;45411;-50
2022/06/29 12:44:12;;;;;;;;;2.75;0.75;;;;;;;;5097630;27;45285;-48
2022/06/29 12:46:39;;;;;;;;;1.75;1.50;;;;;;;;5097588;27;45325;-46
2022/06/29 12:49:05;;;;;;;;;4.80;3.00;;;;;;;;5097525;27;45478;-50
2022/06/29 12:51:31;;;;;;;;;4.00;3.00;;;;;;;;5097416;27;45271;-46
2022/06/29 12:53:56;;;;;;;;;2.00;1.80;;;;;;;;5096103;27;45396;-48
2022/06/29 12:56:22;;;;;;;;;2.00;2.00;;;;;;;;5097650;27;45320;-47
2022/06/29 12:58:47;;;;;;;;;1.75;1.75;;;;;;;;5096723;27;45310;-47
2022/06/29 13:01:12;;;;;;;;;5.75;2.25;;;;;;;;5095212;27;45740;-47
2022/06/29 13:03:37;;;;;;;;;1.00;1.00;;;;;;;;5095547;27;45404;-49
2022/06/29 13:06:02;;;;;;;;;4.50;2.00;;;;;;;;5095668;27;45408;-49
2022/06/29 13:08:28;;;;;;;;;1.00;1.00;;;;;;;;5095633;27;47109;-48
2022/06/29 13:10:53;;;;;;;;;2.00;1.00;;;;;;;;5096121;27;45461;-48
2022/06/29 13:13:18;;;;;;;;;1.00;1.00;;;;;;;;5096350;27;45361;-48
2022/06/29 13:15:44;;;;;;;;;1.50;1.25;;;;;;;;5099923;27;45580;-51
2022/06/29 13:18:09;;;;;;;;;2.00;2.00;;;;;;;;5099295;27;47165;-47
2022/06/29 13:20:34;;;;;;;;;2.00;2.00;;;;;;;;5098963;27;45364;-48
2022/06/29 13:22:59;;;;;;;;;3.00;1.75;;;;;;;;5099656;27;45307;-47
2022/06/29 13:25:25;;;;;;;;;2.00;2.00;;;;;;;;5100284;27;45329;-48
2022/06/29 13:27:50;;;;;;;;;3.00;2.00;;;;;;;;5099529;27;46076;-49
2022/06/29 13:30:15;;;;;;;;;2.00;2.00;;;;;;;;5098484;27;45358;-49
2022/06/29 13:32:41;;;;;;;;;2.50;2.50;;;;;;;;5099029;27;45282;-47
2022/06/29 13:35:06;;;;;;;;;2.00;1.00;;;;;;;;5099195;27;45505;-48
2022/06/29 13:37:32;;;;;;;;;0.50;0.00;;;;;;;;5098630;27;46196;-47
2022/06/29 13:39:57;;;;;;;;;1.00;1.00;;;;;;;;5098630;27;45437;-47
2022/06/29 13:42:22;;;;;;;;;0.25;0.00;;;;;;;;5099871;27;45565;-46
2022/06/29 13:44:48;;;;;;;;;1.00;1.00;;;;;;;;5099717;27;45663;-48
2022/06/29 13:47:13;;;;;;;;;3.50;1.25;;;;;;;;5099342;27;46278;-48
2022/06/29 13:49:38;;;;;;;;;1.75;1.50;;;;;;;;5099460;27;45389;-46
2022/06/29 13:52:04;;;;;;;;;1.00;1.00;;;;;;;;5099626;27;45475;-47
2022/06/29 13:54:29;;;;;;;;;2.75;1.25;;;;;;;;5099815;27;45409;-47
2022/06/29 13:56:54;;;;;;;;;1.50;1.00;;;;;;;;5099198;27;46700;-47
2022/06/29 13:59:20;;;;;;;;;2.00;0.25;;;;;;;;5099212;27;45345;-49
2022/06/29 14:01:45;;;;;;;;;4.00;1.00;;;;;;;;5099485;27;45655;-49
2022/06/29 14:04:10;;;;;;;;;1.25;1.00;;;;;;;;5099520;27;45416;-49
2022/06/29 14:06:35;;;;;;;;;1.00;1.00;;;;;;;;5099475;27;45529;-47
2022/06/29 14:09:00;;;;;;;;;1.25;1.25;;;;;;;;5098907;27;45459;-49
2022/06/29 14:11:26;;;;;;;;;1.00;1.00;;;;;;;;5099364;27;45322;-49
2022/06/29 14:13:51;;;;;;;;;1.00;1.00;;;;;;;;5099485;27;45377;-48
2022/06/29 14:16:16;;;;;;;;;0.25;0.25;;;;;;;;5099046;27;46092;-48
2022/06/29 14:18:42;;;;;;;;;1.00;1.00;;;;;;;;5099252;27;45313;-51
2022/06/29 14:21:08;;;;;;;;;0.75;0.75;;;;;;;;5099306;27;45375;-47
2022/06/29 14:23:34;;;;;;;;;3.00;1.40;;;;;;;;5100468;27;45434;-46
2022/06/29 14:25:59;;;;;;;;;2.00;1.20;;;;;;;;5100446;27;46125;-46
2022/06/29 14:28:24;;;;;;;;;1.00;1.00;;;;;;;;5100787;27;45573;-50
2022/06/29 14:30:49;;;;;;;;;0.75;0.75;;;;;;;;5101262;27;45346;-47
2022/06/29 14:33:15;;;;;;;;;2.50;1.00;;;;;;;;5100712;27;45504;-50
2022/06/29 14:35:40;;;;;;;;;1.75;1.00;;;;;;;;5100236;27;46049;-50
2022/06/29 14:38:05;;;;;;;;;1.00;1.00;;;;;;;;5099570;27;45388;-46
2022/06/29 14:40:31;;;;;;;;;1.00;1.00;;;;;;;;5099633;27;45379;-47
2022/06/29 14:42:56;;;;;;;;;4.25;1.00;;;;;;;;5099980;27;45310;-48
2022/06/29 14:45:22;;;;;;;;;0.50;0.50;;;;;;;;5099393;27;45431;-49
2022/06/29 14:47:47;;;;;;;;;1.00;1.00;;;;;;;;5099342;27;45380;-45
2022/06/29 14:50:13;;;;;;;;;1.00;1.00;;;;;;;;5099653;27;45284;-50
2022/06/29 14:52:38;;;;;;;;;2.00;0.75;;;;;;;;5099408;27;45383;-45
2022/06/29 14:55:04;;;;;;;;;1.00;1.00;;;;;;;;5099330;27;45415;-50
2022/06/29 14:57:30;;;;;;;;;1.00;1.00;;;;;;;;5099284;27;45343;-51